Terminal Aerodrome Forecast
Issued by NWS

Home | Current Version | Previous Version | Text Only | Print | Product List | Glossary On
Versions: 1 2 3 4 5 6 7 8 9 10 11 12 13
000
FTUS46 KPDT 140500
TAFALW
TAF
KALW 140534Z 1406/1506 19009KT P6SM -SHRA SCT050 OVC100
     FM141300 23009KT P6SM BKN120
     FM142100 25011KT P6SM SCT120=

USA.gov is the U.S. government's official web portal to all federal, state and local government web resources and services.